Time;durP1;ratioP1;P1;durP2;ratioP2;P2;SDS_P1;SDS_P2;PMS_P1;PMS_P2;Temp;Humidity;BMP_temperature;BMP_pressure;BME280_temperature;BME280_humidity;BME280_pressure;Samples;Min_cycle;Max_cycle;Signal;HPM_P1;HPM_P2
2022/01/28 04:16:04;;;;;;;7.85;4.72;;;5.90;99.90;;;;;;4091620;22;20262;-86
2022/01/28 04:18:30;;;;;;;7.28;4.72;;;6.00;99.90;;;;;;5081831;28;20257;-86
2022/01/28 04:20:57;;;;;;;11.98;4.80;;;5.70;99.90;;;;;;5081332;28;20205;-87
2022/01/28 04:23:24;;;;;;;8.77;6.00;;;5.70;99.90;;;;;;5079846;28;20297;-86
2022/01/28 04:25:51;;;;;;;6.65;3.90;;;5.40;99.90;;;;;;5068567;28;20241;-86
2022/01/28 04:28:18;;;;;;;8.45;4.70;;;5.30;99.90;;;;;;5065271;28;20210;-87
2022/01/28 04:30:45;;;;;;;8.48;5.50;;;5.70;99.90;;;;;;5059485;28;20210;-88
2022/01/28 04:33:13;;;;;;;7.60;4.80;;;5.70;99.90;;;;;;5058988;28;20281;-86
2022/01/28 04:35:40;;;;;;;8.23;4.40;;;5.60;99.90;;;;;;5060350;28;20262;-87
2022/01/28 04:38:19;;;;;;;7.28;4.50;;;5.00;99.90;;;;;;5060129;28;20198;-87
2022/01/28 04:40:56;;;;;;;7.45;5.05;;;5.10;99.90;;;;;;5061284;28;20195;-86
2022/01/28 04:43:28;;;;;;;11.25;4.70;;;5.60;99.90;;;;;;5060463;28;20229;-86
2022/01/28 04:46:04;;;;;;;11.73;5.82;;;5.50;99.90;;;;;;5073467;28;20629;-88
2022/01/28 04:48:38;;;;;;;7.60;5.05;;;5.50;99.90;;;;;;5060577;28;20285;-87
2022/01/28 04:51:15;;;;;;;9.13;4.80;;;5.70;99.90;;;;;;5060885;28;20197;-86
2022/01/28 04:53:58;;;;;;;9.63;4.80;;;5.50;99.90;;;;;;5060646;28;20190;-86
2022/01/28 04:56:39;;;;;;;11.20;5.07;;;5.10;99.90;;;;;;5070511;28;20190;-86
2022/01/28 04:59:28;;;;;;;8.40;5.20;;;5.50;99.90;;;;;;5066982;28;20194;-86
2022/01/28 05:04:58;;;;;;;8.48;5.93;;;5.40;99.90;;;;;;5062976;28;20257;-88
2022/01/28 05:08:01;;;;;;;9.25;5.78;;;5.50;99.90;;;;;;5061820;28;20186;-87
2022/01/28 05:16:23;;;;;;;7.82;4.63;;;5.70;99.90;;;;;;5059339;28;20226;-87
2022/01/28 05:25:02;;;;;;;9.65;5.88;;;5.50;99.90;;;;;;5058875;28;20309;-87
2022/01/28 05:27:37;;;;;;;8.43;5.47;;;5.70;99.90;;;;;;5063085;28;20210;-87
2022/01/28 05:30:05;;;;;;;8.85;5.43;;;5.20;99.90;;;;;;5061364;28;20579;-87
2022/01/28 05:32:32;;;;;;;10.25;5.18;;;5.60;99.90;;;;;;5060233;28;20207;-86
2022/01/28 05:34:59;;;;;;;9.73;5.13;;;5.30;99.90;;;;;;5060054;28;20237;-84
2022/01/28 05:37:27;;;;;;;11.57;5.70;;;4.90;99.90;;;;;;5057317;28;20220;-86
2022/01/28 05:39:54;;;;;;;10.05;5.50;;;5.00;99.90;;;;;;5057261;28;20241;-86
2022/01/28 05:42:21;;;;;;;11.90;5.72;;;5.30;99.90;;;;;;5058419;28;20229;-86
2022/01/28 05:44:47;;;;;;;7.93;4.80;;;4.80;99.90;;;;;;5072979;28;20660;-87
2022/01/28 05:47:16;;;;;;;8.48;5.07;;;4.80;99.90;;;;;;5060251;28;20214;-87
2022/01/28 05:49:44;;;;;;;9.27;5.60;;;4.90;99.90;;;;;;5060012;28;20249;-86
2022/01/28 05:52:11;;;;;;;9.27;5.57;;;5.20;99.90;;;;;;5060939;28;20207;-88
2022/01/28 05:54:39;;;;;;;9.02;5.22;;;4.80;99.90;;;;;;5059149;28;20294;-87
2022/01/28 05:57:06;;;;;;;8.27;4.70;;;5.10;99.90;;;;;;5065900;28;20274;-87
2022/01/28 05:59:33;;;;;;;11.45;5.80;;;5.40;99.90;;;;;;5064577;28;20629;-86
2022/01/28 06:02:00;;;;;;;11.10;6.00;;;5.10;99.90;;;;;;5061964;28;20209;-86
2022/01/28 06:04:28;;;;;;;8.90;5.65;;;5.10;99.90;;;;;;5070203;28;20241;-86
2022/01/28 06:06:55;;;;;;;9.82;5.40;;;5.20;99.90;;;;;;5070980;28;20210;-87
2022/01/28 06:09:25;;;;;;;12.35;6.57;;;5.20;99.90;;;;;;5060491;28;20230;-87
2022/01/28 06:11:53;;;;;;;10.50;6.00;;;5.10;99.90;;;;;;5058962;28;20213;-86
2022/01/28 06:14:20;;;;;;;9.45;6.25;;;5.10;99.90;;;;;;5058496;28;20321;-88
2022/01/28 06:16:47;;;;;;;10.63;6.00;;;5.10;99.90;;;;;;5059339;28;20225;-88
2022/01/28 06:19:14;;;;;;;9.57;5.95;;;5.10;99.90;;;;;;5057915;28;20629;-87
2022/01/28 06:21:41;;;;;;;10.98;5.70;;;4.60;99.90;;;;;;5058517;28;20233;-85
2022/01/28 06:24:08;;;;;;;10.65;5.88;;;4.80;99.90;;;;;;5064312;28;20226;-88
2022/01/28 06:26:35;;;;;;;9.45;5.60;;;4.80;99.90;;;;;;5065021;28;20206;-87
2022/01/28 06:29:03;;;;;;;9.80;6.15;;;4.60;99.90;;;;;;5063169;28;20209;-86
2022/01/28 06:31:30;;;;;;;10.15;5.95;;;4.90;99.90;;;;;;5059335;28;20204;-87
2022/01/28 06:33:57;;;;;;;10.52;5.63;;;4.50;99.90;;;;;;5062156;28;20230;-87
2022/01/28 06:36:24;;;;;;;8.70;5.35;;;5.10;99.90;;;;;;5075550;28;20717;-86
2022/01/28 06:38:51;;;;;;;8.13;5.50;;;5.00;99.90;;;;;;5071717;28;20202;-87
2022/01/28 06:41:18;;;;;;;9.75;6.00;;;4.90;99.90;;;;;;5064927;28;20281;-87
2022/01/28 06:43:45;;;;;;;10.32;6.47;;;4.80;99.90;;;;;;5058948;28;20664;-85
2022/01/28 06:46:13;;;;;;;12.32;5.90;;;5.00;99.90;;;;;;5061587;28;20225;-88
2022/01/28 06:48:40;;;;;;;11.60;6.13;;;5.10;99.90;;;;;;5059130;28;20728;-86
2022/01/28 06:51:07;;;;;;;11.13;6.43;;;4.70;99.90;;;;;;5059542;28;20198;-86
2022/01/28 06:53:34;;;;;;;11.43;6.03;;;4.50;99.90;;;;;;5059604;28;20202;-87
2022/01/28 06:56:01;;;;;;;11.32;7.13;;;4.80;99.90;;;;;;5061852;28;20214;-87
2022/01/28 06:58:27;;;;;;;13.00;7.38;;;5.00;99.90;;;;;;5061449;28;20198;-86
2022/01/28 07:00:54;;;;;;;13.40;6.72;;;4.90;99.90;;;;;;5059813;28;20212;-86
2022/01/28 07:03:23;;;;;;;9.80;6.25;;;4.90;99.90;;;;;;5058868;28;20218;-86
2022/01/28 07:05:49;;;;;;;11.65;6.63;;;5.10;99.90;;;;;;5060056;28;20294;-87
2022/01/28 07:08:16;;;;;;;13.40;6.63;;;4.80;99.90;;;;;;5060401;28;20241;-87
2022/01/28 07:10:43;;;;;;;15.93;6.53;;;4.70;99.90;;;;;;5064011;28;20219;-88
2022/01/28 07:13:13;;;;;;;11.95;7.72;;;5.00;99.90;;;;;;5064890;28;20758;-87
2022/01/28 07:15:39;;;;;;;12.75;7.80;;;5.20;99.90;;;;;;5066078;28;20233;-87
2022/01/28 07:18:06;;;;;;;14.30;7.57;;;4.80;99.90;;;;;;5067429;28;20210;-86
2022/01/28 07:20:34;;;;;;;11.10;6.97;;;4.90;99.90;;;;;;5067172;28;20269;-85
2022/01/28 07:23:02;;;;;;;11.52;7.85;;;4.90;99.90;;;;;;5064734;28;20299;-86
2022/01/28 07:25:29;;;;;;;16.65;8.43;;;4.50;99.90;;;;;;5065199;28;20236;-85
2022/01/28 07:27:56;;;;;;;10.48;6.80;;;4.80;99.90;;;;;;5071286;28;20194;-86
2022/01/28 07:30:23;;;;;;;12.95;7.10;;;4.50;99.90;;;;;;5062196;28;20693;-87
2022/01/28 07:32:51;;;;;;;17.80;7.50;;;4.50;99.90;;;;;;5063298;28;20202;-86
2022/01/28 07:35:18;;;;;;;11.77;6.88;;;4.30;99.90;;;;;;5062810;28;20229;-86
2022/01/28 07:37:46;;;;;;;11.65;6.93;;;5.10;99.90;;;;;;5062933;28;20244;-86
2022/01/28 07:40:14;;;;;;;12.23;6.45;;;4.60;99.90;;;;;;5061903;28;20202;-86
2022/01/28 07:42:41;;;;;;;13.55;6.75;;;5.00;99.90;;;;;;5068458;28;20238;-87
2022/01/28 07:45:10;;;;;;;12.18;7.07;;;4.70;99.90;;;;;;5064069;28;20785;-86
2022/01/28 07:47:37;;;;;;;13.93;7.32;;;5.00;99.90;;;;;;5062547;28;20212;-85
2022/01/28 07:50:05;;;;;;;14.90;7.07;;;5.30;99.90;;;;;;5061338;28;20686;-86
2022/01/28 07:52:32;;;;;;;12.20;6.63;;;5.30;99.90;;;;;;5061598;28;20236;-85
2022/01/28 07:55:00;;;;;;;13.55;6.97;;;5.20;99.90;;;;;;5061279;28;20260;-86
2022/01/28 07:57:27;;;;;;;11.48;7.47;;;5.40;99.90;;;;;;5060029;28;20214;-87
2022/01/28 07:59:54;;;;;;;15.65;7.07;;;5.30;99.90;;;;;;5061406;28;20237;-87
2022/01/28 08:02:21;;;;;;;10.50;6.47;;;5.50;99.90;;;;;;5075848;28;20282;-86
2022/01/28 08:04:48;;;;;;;13.10;6.65;;;4.80;99.90;;;;;;5076535;28;20234;-87
2022/01/28 08:07:15;;;;;;;13.45;6.47;;;5.40;99.90;;;;;;5063190;28;20232;-87
2022/01/28 08:09:42;;;;;;;9.95;6.32;;;5.00;99.90;;;;;;5061938;28;20244;-87
2022/01/28 08:12:10;;;;;;;10.13;5.70;;;5.60;99.90;;;;;;5062895;28;20267;-86
2022/01/28 08:14:37;;;;;;;10.63;5.85;;;5.10;99.90;;;;;;5062857;28;20258;-86
2022/01/28 08:17:11;;;;;;;11.77;7.25;;;5.20;99.90;;;;;;5061678;28;20245;-87
2022/01/28 08:19:38;;;;;;;13.32;6.80;;;5.50;99.90;;;;;;5065513;28;20190;-86
2022/01/28 08:22:05;;;;;;;11.77;5.90;;;5.50;99.90;;;;;;5070031;28;20202;-89
2022/01/28 08:24:32;;;;;;;10.23;6.10;;;5.50;99.90;;;;;;5067713;28;20226;-88
2022/01/28 08:26:59;;;;;;;11.80;5.65;;;5.60;99.90;;;;;;5066835;28;20263;-87
2022/01/28 08:29:27;;;;;;;9.07;5.43;;;5.70;99.90;;;;;;5064943;28;20210;-88
2022/01/28 08:31:54;;;;;;;9.13;6.00;;;5.80;99.90;;;;;;5065614;28;20232;-87
2022/01/28 08:34:21;;;;;;;10.20;5.95;;;5.40;99.90;;;;;;5064688;28;20249;-88
2022/01/28 08:36:49;;;;;;;11.15;5.90;;;5.50;99.90;;;;;;5063637;28;20206;-86
2022/01/28 08:39:16;;;;;;;10.30;5.50;;;5.60;99.90;;;;;;5063793;28;20292;-85
2022/01/28 08:41:43;;;;;;;10.90;5.43;;;5.90;99.90;;;;;;5063775;28;20210;-85
2022/01/28 08:44:10;;;;;;;10.30;5.65;;;6.00;99.90;;;;;;5063117;28;20351;-85
2022/01/28 08:46:38;;;;;;;12.75;5.93;;;6.20;99.90;;;;;;5064165;28;20220;-87
2022/01/28 08:49:05;;;;;;;9.27;5.40;;;6.10;99.90;;;;;;5075545;28;20209;-85
2022/01/28 08:51:32;;;;;;;10.50;5.90;;;6.00;99.90;;;;;;5074666;28;20209;-86
2022/01/28 08:53:59;;;;;;;8.82;5.68;;;6.20;99.90;;;;;;5070833;28;20217;-86
2022/01/28 08:56:26;;;;;;;10.60;5.22;;;6.30;99.90;;;;;;5065332;28;20204;-85
2022/01/28 08:58:53;;;;;;;10.75;5.85;;;5.90;99.90;;;;;;5064211;28;20289;-87
2022/01/28 09:01:28;;;;;;;8.75;5.95;;;6.40;99.90;;;;;;5076280;28;20198;-88
2022/01/28 09:03:57;;;;;;;12.60;5.80;;;6.30;99.90;;;;;;5067922;28;20237;-87
2022/01/28 09:06:24;;;;;;;10.45;5.65;;;6.50;99.90;;;;;;5066049;28;20206;-88
2022/01/28 09:08:55;;;;;;;9.30;4.13;;;6.60;99.90;;;;;;5065234;28;20206;-87
2022/01/28 09:11:46;;;;;;;15.13;4.85;;;6.60;99.90;;;;;;5066764;28;20206;-87
2022/01/28 09:14:13;;;;;;;8.93;4.13;;;6.60;99.90;;;;;;5067772;28;20715;-87
2022/01/28 09:16:41;;;;;;;10.40;4.93;;;6.60;99.90;;;;;;5075188;28;20229;-87
2022/01/28 09:19:09;;;;;;;7.82;4.75;;;6.70;99.90;;;;;;5079251;28;20226;-87
2022/01/28 09:21:36;;;;;;;13.40;5.32;;;6.40;99.90;;;;;;5063052;28;20206;-85
2022/01/28 09:24:04;;;;;;;8.30;4.50;;;6.90;99.90;;;;;;5065324;28;20230;-85
2022/01/28 09:26:33;;;;;;;10.07;5.03;;;6.80;99.90;;;;;;5062041;28;20225;-86
2022/01/28 09:29:00;;;;;;;9.93;4.60;;;6.80;99.90;;;;;;5066422;28;20200;-86
2022/01/28 09:31:27;;;;;;;8.13;4.78;;;6.50;99.90;;;;;;5076636;28;20209;-86
2022/01/28 09:33:54;;;;;;;9.55;4.60;;;6.50;99.90;;;;;;5068038;28;20202;-86
2022/01/28 09:36:23;;;;;;;16.90;6.35;;;6.90;99.90;;;;;;5063191;28;20206;-87
2022/01/28 09:38:50;;;;;;;8.38;4.63;;;7.00;99.90;;;;;;5062327;28;20630;-87
2022/01/28 09:41:19;;;;;;;8.68;4.35;;;7.10;99.90;;;;;;5063614;28;20206;-86
2022/01/28 09:43:47;;;;;;;6.85;3.85;;;7.10;99.90;;;;;;5064266;28;20781;-88
2022/01/28 09:46:15;;;;;;;9.05;4.35;;;7.40;99.90;;;;;;5066720;28;20226;-88
2022/01/28 09:48:42;;;;;;;10.40;4.25;;;7.40;99.90;;;;;;5070087;28;20241;-88
2022/01/28 09:51:13;;;;;;;7.50;3.38;;;7.40;99.90;;;;;;5062852;28;20214;-88
2022/01/28 09:53:41;;;;;;;7.97;4.13;;;7.40;99.90;;;;;;5061349;28;20265;-87
2022/01/28 09:56:08;;;;;;;8.88;3.72;;;7.50;99.90;;;;;;5063966;28;20252;-87
2022/01/28 09:58:39;;;;;;;7.22;3.45;;;7.60;99.90;;;;;;5063849;28;20227;-87
2022/01/28 10:01:06;;;;;;;8.55;3.95;;;7.60;99.90;;;;;;5063166;28;20240;-88
2022/01/28 10:03:36;;;;;;;12.15;3.80;;;7.40;99.90;;;;;;5062175;28;20253;-87
2022/01/28 10:06:24;;;;;;;;;;;;;;;;;;;;;
2022/01/28 10:09:01;;;;;;;8.38;3.60;;;7.90;99.90;;;;;;5072848;28;20212;-88
2022/01/28 10:11:30;;;;;;;10.32;3.30;;;8.00;99.90;;;;;;5061939;28;20750;-88
2022/01/28 10:14:04;;;;;;;6.03;2.20;;;8.00;99.90;;;;;;5061621;28;20206;-88
2022/01/28 10:16:31;;;;;;;10.88;3.00;;;8.20;99.90;;;;;;5164244;22;20304;-90
2022/01/28 10:19:00;;;;;;;9.65;3.30;;;8.10;99.90;;;;;;5089675;28;20209;-88
2022/01/28 10:21:29;;;;;;;7.70;2.80;;;8.10;99.90;;;;;;5089281;28;20201;-89
2022/01/28 10:24:17;;;;;;;8.45;2.97;;;8.10;99.90;;;;;;5090462;28;20222;-89
2022/01/28 10:26:47;;;;;;;4.60;1.77;;;8.20;99.90;;;;;;5058895;28;20229;-89
2022/01/28 10:29:19;;;;;;;5.43;2.30;;;8.10;99.90;;;;;;5069201;28;20248;-88
2022/01/28 10:31:49;;;;;;;7.60;2.42;;;8.00;99.90;;;;;;5070926;28;20209;-90
2022/01/28 10:34:19;;;;;;;7.63;3.05;;;7.90;99.90;;;;;;5065585;28;20245;-89
2022/01/28 10:36:47;;;;;;;8.10;2.20;;;7.90;99.90;;;;;;5071898;28;20238;-88
2022/01/28 10:39:19;;;;;;;7.32;2.58;;;7.90;99.90;;;;;;5070944;28;20237;-88
2022/01/28 10:41:58;;;;;;;6.38;2.20;;;7.80;99.90;;;;;;5069321;28;20299;-89
2022/01/28 10:44:26;;;;;;;8.18;2.80;;;7.50;99.90;;;;;;5069899;28;20218;-89
2022/01/28 10:46:56;;;;;;;28.30;3.58;;;7.90;99.90;;;;;;5070656;28;20226;-86
2022/01/28 10:49:32;;;;;;;20.73;4.20;;;7.80;99.90;;;;;;5068571;28;20225;-88
2022/01/28 10:52:08;;;;;;;4.43;2.20;;;7.60;99.90;;;;;;5066002;28;20233;-86
2022/01/28 10:54:37;;;;;;;6.45;2.45;;;7.80;99.90;;;;;;5066187;28;20182;-86
2022/01/28 10:57:07;;;;;;;6.68;2.50;;;7.90;99.90;;;;;;5067669;28;20273;-89
2022/01/28 10:59:39;;;;;;;7.38;2.15;;;7.90;99.90;;;;;;5076472;28;20186;-86
2022/01/28 11:02:07;;;;;;;5.78;2.00;;;7.90;99.90;;;;;;5073482;28;20225;-88
2022/01/28 11:04:34;;;;;;;8.10;2.17;;;8.00;99.90;;;;;;5070595;28;20222;-88
2022/01/28 11:07:03;;;;;;;8.50;2.10;;;8.30;99.90;;;;;;5076169;28;20204;-87
2022/01/28 11:09:31;;;;;;;6.28;2.30;;;8.30;99.90;;;;;;5073847;28;20229;-89
2022/01/28 11:12:01;;;;;;;9.52;2.75;;;8.30;99.90;;;;;;5075068;28;20232;-88
2022/01/28 11:14:29;;;;;;;6.80;1.85;;;8.20;99.90;;;;;;5074918;28;20190;-87
2022/01/28 11:16:56;;;;;;;5.38;1.80;;;8.30;99.90;;;;;;5074451;28;20218;-88
2022/01/28 11:19:25;;;;;;;10.10;2.45;;;8.20;99.90;;;;;;5070598;28;20236;-88
2022/01/28 11:22:09;;;;;;;10.32;2.13;;;8.00;99.90;;;;;;5073004;28;20206;-89
2022/01/28 11:25:13;;;;;;;6.25;2.40;;;8.00;99.90;;;;;;5075196;28;20228;-87
2022/01/28 11:27:49;;;;;;;4.85;1.20;;;8.00;99.90;;;;;;5076656;28;20198;-89
2022/01/28 11:30:26;;;;;;;7.95;2.38;;;8.00;99.90;;;;;;5070389;28;20189;-88
2022/01/28 11:33:02;;;;;;;5.97;2.17;;;7.80;99.90;;;;;;5066986;28;20201;-89
2022/01/28 11:38:41;;;;;;;9.05;2.63;;;8.00;99.90;;;;;;5104045;28;20217;-89
2022/01/28 11:41:11;;;;;;;6.90;2.80;;;8.20;99.90;;;;;;5105938;28;20329;-90
2022/01/28 11:43:47;;;;;;;4.53;1.90;;;8.30;99.90;;;;;;5105239;28;20213;-89
2022/01/28 11:46:22;;;;;;;4.00;1.90;;;8.40;99.90;;;;;;5101667;28;20235;-89
2022/01/28 11:49:24;;;;;;;9.57;2.97;;;8.30;99.90;;;;;;5088934;28;20255;-89
2022/01/28 11:51:52;;;;;;;8.20;2.50;;;8.20;99.90;;;;;;5082840;28;20256;-88
2022/01/28 11:54:36;;;;;;;11.70;2.47;;;8.30;99.90;;;;;;5083010;28;20205;-89
2022/01/28 11:57:22;;;;;;;5.88;1.95;;;8.40;99.90;;;;;;5083038;28;20196;-89
2022/01/28 11:59:51;;;;;;;4.45;2.10;;;8.40;99.90;;;;;;5082569;28;20193;-90
2022/01/28 12:02:22;;;;;;;8.55;2.60;;;8.40;99.90;;;;;;5085270;28;20194;-89
2022/01/28 12:04:49;;;;;;;5.80;2.40;;;8.40;99.90;;;;;;5084553;28;20592;-90
2022/01/28 12:07:22;;;;;;;6.07;2.15;;;8.40;99.90;;;;;;5084762;28;20202;-89
2022/01/28 12:09:54;;;;;;;5.15;2.10;;;8.30;99.90;;;;;;5085987;28;20200;-88
2022/01/28 12:12:41;;;;;;;5.68;2.70;;;8.30;99.90;;;;;;5089174;28;20204;-88
2022/01/28 12:15:12;;;;;;;5.97;2.25;;;7.80;99.90;;;;;;5084366;28;20225;-89
2022/01/28 12:17:47;;;;;;;6.68;2.35;;;8.00;99.90;;;;;;5089876;28;20247;-88
2022/01/28 12:20:37;;;;;;;8.10;1.85;;;8.10;99.90;;;;;;5089035;28;20537;-89
2022/01/28 12:23:27;;;;;;;13.52;2.42;;;7.80;99.90;;;;;;5088730;28;20217;-89
2022/01/28 12:26:03;;;;;;;7.32;3.15;;;7.90;99.90;;;;;;5096011;28;20217;-88
2022/01/28 12:28:54;;;;;;;6.65;2.17;;;8.00;99.90;;;;;;5090302;28;20208;-89
2022/01/28 12:31:31;;;;;;;6.43;2.20;;;8.00;99.90;;;;;;5094333;28;20185;-90
2022/01/28 12:34:01;;;;;;;6.80;2.42;;;8.10;99.90;;;;;;5092899;28;20190;-89
2022/01/28 12:36:31;;;;;;;6.55;2.35;;;8.10;99.90;;;;;;5092231;28;20290;-88
2022/01/28 12:41:52;;;;;;;5.57;2.53;;;7.90;99.90;;;;;;5089869;28;20201;-89
2022/01/28 12:44:20;;;;;;;10.10;3.22;;;8.00;99.90;;;;;;5092279;28;20298;-90
2022/01/28 12:46:56;;;;;;;6.45;2.60;;;8.00;99.90;;;;;;5092297;28;20218;-89
2022/01/28 12:49:30;;;;;;;6.47;2.70;;;8.10;99.90;;;;;;5087699;28;20228;-88
2022/01/28 12:52:02;;;;;;;6.05;2.30;;;8.10;99.90;;;;;;5087577;28;20204;-89
2022/01/28 12:54:38;;;;;;;6.15;2.80;;;8.30;99.90;;;;;;5090337;28;20181;-88
2022/01/28 12:57:07;;;;;;;11.65;3.30;;;8.40;99.90;;;;;;5091186;28;20195;-88
2022/01/28 12:59:35;;;;;;;11.90;4.93;;;8.20;99.90;;;;;;5087347;28;20212;-89
2022/01/28 13:02:03;;;;;;;7.50;3.47;;;8.10;99.90;;;;;;5097941;28;20216;-89
2022/01/28 13:04:50;;;;;;;3.78;2.15;;;8.00;99.90;;;;;;5093593;28;20347;-88
2022/01/28 13:10:03;;;;;;;9.95;4.55;;;8.10;99.90;;;;;;5092392;28;20196;-89
2022/01/28 13:12:31;;;;;;;7.88;3.70;;;8.10;99.90;;;;;;5090400;28;20694;-89
2022/01/28 13:15:06;;;;;;;6.50;3.30;;;8.10;99.90;;;;;;5093754;28;20301;-89
2022/01/28 13:17:34;;;;;;;8.85;3.17;;;8.10;99.90;;;;;;5091578;28;20204;-89
2022/01/28 13:20:05;;;;;;;8.20;3.88;;;7.90;99.90;;;;;;5088392;28;20269;-89
2022/01/28 13:22:33;;;;;;;10.20;3.40;;;8.00;99.90;;;;;;5091427;28;20206;-89
2022/01/28 13:25:00;;;;;;;9.75;3.28;;;8.00;99.90;;;;;;5093492;28;20225;-87
2022/01/28 13:27:40;;;;;;;9.02;4.30;;;8.10;99.90;;;;;;5090949;28;20234;-89
2022/01/28 13:30:13;;;;;;;9.65;4.22;;;7.70;99.90;;;;;;5089066;28;20220;-89
2022/01/28 13:32:43;;;;;;;10.10;5.07;;;7.80;99.90;;;;;;5089240;28;20201;-88
2022/01/28 13:35:15;;;;;;;10.50;3.47;;;7.80;99.90;;;;;;5093404;28;20221;-89
2022/01/28 13:37:44;;;;;;;10.05;4.60;;;7.80;99.90;;;;;;5096251;28;20205;-89
2022/01/28 13:40:28;;;;;;;8.40;4.50;;;7.90;99.90;;;;;;5098178;28;20228;-88
2022/01/28 13:42:59;;;;;;;7.65;4.25;;;7.90;99.90;;;;;;5097491;28;20178;-86
2022/01/28 13:45:34;;;;;;;8.05;4.25;;;7.90;99.90;;;;;;5098639;28;20315;-86
2022/01/28 13:48:03;;;;;;;11.27;4.90;;;7.70;99.90;;;;;;5092958;28;20198;-87
2022/01/28 13:50:33;;;;;;;7.70;4.07;;;7.70;99.90;;;;;;5096814;28;20292;-89
2022/01/28 13:53:22;;;;;;;9.40;4.30;;;7.80;99.90;;;;;;5095202;28;20253;-88
2022/01/28 13:55:50;;;;;;;9.82;4.85;;;7.50;99.90;;;;;;5091471;28;20257;-89
2022/01/28 13:58:17;;;;;;;8.75;3.47;;;7.70;99.90;;;;;;5090419;28;20217;-87
2022/01/28 14:00:46;;;;;;;16.27;4.25;;;8.00;99.90;;;;;;5090757;28;20216;-89
2022/01/28 14:03:19;;;;;;;9.13;4.97;;;7.90;99.90;;;;;;5088677;28;20209;-87
2022/01/28 14:05:50;;;;;;;7.03;3.65;;;7.30;99.90;;;;;;5088547;28;20225;-87
2022/01/28 14:08:34;;;;;;;8.70;5.15;;;7.90;99.90;;;;;;5088092;28;20266;-88
2022/01/28 14:11:26;;;;;;;8.20;4.40;;;7.80;99.90;;;;;;5094432;28;20190;-88
2022/01/28 14:14:16;;;;;;;12.18;4.63;;;7.90;99.90;;;;;;5087616;28;20684;-89
2022/01/28 14:16:45;;;;;;;8.93;4.32;;;7.70;99.90;;;;;;5091164;28;20222;-89
2022/01/28 14:19:14;;;;;;;13.35;5.30;;;7.80;99.90;;;;;;5090221;28;20235;-89
2022/01/28 14:21:42;;;;;;;11.35;5.32;;;7.50;99.90;;;;;;5096085;28;20202;-89
2022/01/28 14:24:16;;;;;;;17.38;4.88;;;7.50;99.90;;;;;;5096158;28;20189;-89
2022/01/28 14:26:44;;;;;;;9.63;4.80;;;7.80;99.90;;;;;;5092454;28;20233;-88
2022/01/28 14:32:01;;;;;;;10.15;4.97;;;7.40;99.90;;;;;;5086091;28;20220;-89
2022/01/28 14:34:30;;;;;;;10.07;5.03;;;7.90;99.90;;;;;;5094555;28;20215;-88
2022/01/28 14:37:02;;;;;;;10.68;5.32;;;7.80;99.90;;;;;;5087346;28;20237;-89
2022/01/28 14:39:31;;;;;;;11.25;4.95;;;7.80;99.90;;;;;;5088038;28;20232;-88
2022/01/28 14:42:02;;;;;;;11.52;5.50;;;7.90;99.90;;;;;;5088141;28;20213;-88
2022/01/28 14:44:32;;;;;;;9.43;5.13;;;8.00;99.90;;;;;;5087410;28;20189;-88
2022/01/28 14:46:59;;;;;;;7.43;5.45;;;7.70;99.90;;;;;;5088717;28;20222;-88
2022/01/28 14:49:31;;;;;;;9.75;5.00;;;7.90;99.90;;;;;;5087458;28;20273;-88
2022/01/28 14:52:01;;;;;;;8.80;5.38;;;7.70;99.90;;;;;;5087599;28;20273;-88
2022/01/28 14:54:31;;;;;;;9.70;5.18;;;7.80;99.90;;;;;;5086329;28;20269;-89
2022/01/28 14:56:59;;;;;;;12.95;5.30;;;7.90;99.90;;;;;;5091900;28;20246;-90
2022/01/28 14:59:26;;;;;;;18.23;5.32;;;7.70;99.90;;;;;;5085792;28;20208;-89
2022/01/28 15:01:59;;;;;;;8.57;4.32;;;7.90;99.90;;;;;;5087315;28;20206;-89
2022/01/28 15:04:26;;;;;;;9.82;5.05;;;8.00;99.90;;;;;;5087888;28;20240;-88
2022/01/28 15:06:54;;;;;;;11.63;5.32;;;8.00;99.90;;;;;;5084702;28;20229;-89
2022/01/28 15:09:21;;;;;;;8.85;4.60;;;8.00;99.90;;;;;;5091091;28;20201;-89
2022/01/28 15:11:48;;;;;;;9.32;4.80;;;7.60;99.90;;;;;;5091355;28;20280;-89
2022/01/28 15:14:17;;;;;;;8.25;4.75;;;8.00;99.90;;;;;;5088553;28;20201;-88
2022/01/28 15:16:45;;;;;;;8.63;4.75;;;8.00;99.90;;;;;;5084597;28;20717;-87
2022/01/28 15:19:12;;;;;;;6.97;4.10;;;7.50;99.90;;;;;;5082701;28;20284;-87
2022/01/28 15:21:41;;;;;;;9.13;4.80;;;7.50;99.90;;;;;;5066202;28;20209;-86
2022/01/28 15:24:10;;;;;;;12.02;5.13;;;7.60;99.90;;;;;;5084687;28;20212;-86
2022/01/28 15:26:37;;;;;;;7.47;4.05;;;7.70;99.90;;;;;;5090304;28;20221;-86
2022/01/28 15:29:06;;;;;;;10.75;5.43;;;7.70;99.90;;;;;;5092997;28;20189;-86
2022/01/28 15:37:05;;;;;;;11.25;4.63;;;7.80;99.90;;;;;;5084990;28;20209;-88
2022/01/28 15:39:35;;;;;;;10.70;4.70;;;7.50;99.90;;;;;;5085336;28;20259;-89
2022/01/28 15:42:03;;;;;;;10.30;4.90;;;7.50;99.90;;;;;;5092471;28;20182;-87
2022/01/28 15:44:30;;;;;;;11.98;6.82;;;7.50;99.90;;;;;;5093380;28;20268;-84
2022/01/28 15:46:58;;;;;;;9.48;4.43;;;7.60;99.90;;;;;;5088187;28;20301;-90
2022/01/28 15:49:26;;;;;;;9.25;4.55;;;7.20;99.90;;;;;;5088543;28;20225;-86
2022/01/28 15:51:53;;;;;;;9.82;4.05;;;7.60;99.90;;;;;;5088052;28;20269;-89
2022/01/28 15:54:20;;;;;;;9.75;4.80;;;7.50;99.90;;;;;;5089366;28;20228;-87
2022/01/28 15:56:52;;;;;;;8.60;4.30;;;7.40;99.90;;;;;;5089478;28;20221;-87
2022/01/28 15:59:23;;;;;;;10.05;4.85;;;7.40;99.90;;;;;;5088675;28;20225;-87
2022/01/28 16:01:53;;;;;;;10.45;5.68;;;7.50;99.90;;;;;;5087419;28;20296;-87
2022/01/28 16:04:20;;;;;;;13.60;5.75;;;7.40;99.90;;;;;;5088856;28;20229;-88
2022/01/28 16:06:49;;;;;;;10.23;5.53;;;7.40;99.90;;;;;;5089497;28;20291;-88
2022/01/28 16:09:16;;;;;;;11.10;4.53;;;7.20;99.90;;;;;;5093206;28;20201;-87
2022/01/28 16:11:47;;;;;;;14.15;5.25;;;7.20;99.90;;;;;;5088568;28;20716;-88
2022/01/28 16:14:17;;;;;;;8.27;4.75;;;7.30;99.90;;;;;;5087262;28;20190;-88
2022/01/28 16:19:31;;;;;;;9.15;4.88;;;7.40;99.90;;;;;;5097519;22;20806;-89
2022/01/28 16:22:04;;;;;;;10.23;5.75;;;7.30;99.90;;;;;;5086050;28;20185;-89
2022/01/28 16:24:31;;;;;;;10.55;5.75;;;7.20;99.90;;;;;;5086833;28;20213;-89
2022/01/28 16:27:04;;;;;;;15.30;6.10;;;7.20;99.90;;;;;;5086199;28;20251;-88
2022/01/28 16:29:34;;;;;;;13.40;4.60;;;7.10;99.90;;;;;;5078484;28;20225;-88
2022/01/28 16:32:08;;;;;;;14.68;6.07;;;7.10;99.90;;;;;;5065318;28;20212;-89
2022/01/28 16:34:38;;;;;;;12.95;6.30;;;7.10;99.90;;;;;;5068026;28;20252;-89
2022/01/28 16:37:25;;;;;;;10.25;5.70;;;7.00;99.90;;;;;;5068357;28;20588;-89
2022/01/28 16:39:54;;;;;;;12.38;5.50;;;7.20;99.90;;;;;;5012293;28;20219;-88
2022/01/28 16:42:59;;;;;;;9.40;5.07;;;7.20;99.90;;;;;;5073007;28;20194;-87
2022/01/28 16:45:32;;;;;;;13.13;5.22;;;7.10;99.90;;;;;;5019160;28;20200;-86
2022/01/28 16:48:00;;;;;;;8.57;4.55;;;7.30;99.90;;;;;;5030294;28;20198;-87
2022/01/28 16:50:33;;;;;;;10.90;5.97;;;7.30;99.90;;;;;;5074888;28;20281;-90
2022/01/28 16:53:07;;;;;;;9.90;4.95;;;7.00;99.90;;;;;;5069744;28;20264;-90
2022/01/28 16:55:35;;;;;;;8.70;5.55;;;7.00;99.90;;;;;;5073485;28;20198;-90
2022/01/28 16:58:09;;;;;;;11.40;5.63;;;6.90;99.90;;;;;;5069586;28;20229;-90
2022/01/28 17:01:01;;;;;;;12.57;6.88;;;7.00;99.90;;;;;;5070649;28;20221;-90
2022/01/28 17:03:30;;;;;;;10.10;5.85;;;7.00;99.90;;;;;;5067211;28;20213;-92
2022/01/28 17:05:57;;;;;;;8.98;5.30;;;7.10;99.90;;;;;;5065305;28;20233;-88
2022/01/28 17:08:27;;;;;;;11.55;5.70;;;7.00;99.90;;;;;;5065743;28;20202;-89
2022/01/28 17:11:12;;;;;;;11.65;5.80;;;7.00;99.90;;;;;;5065257;28;20233;-88
2022/01/28 17:13:39;;;;;;;11.63;6.78;;;7.00;99.90;;;;;;5066204;28;20266;-91
2022/01/28 17:16:07;;;;;;;11.38;5.88;;;6.60;99.90;;;;;;5070528;28;20206;-90
2022/01/28 17:18:34;;;;;;;9.82;6.57;;;6.60;99.90;;;;;;5067183;28;20666;-90
2022/01/28 17:21:03;;;;;;;12.93;7.20;;;6.90;99.90;;;;;;5064341;28;20240;-89
2022/01/28 17:23:31;;;;;;;12.80;7.65;;;6.90;99.90;;;;;;5063871;28;20229;-89
2022/01/28 17:26:04;;;;;;;12.32;7.82;;;6.80;99.90;;;;;;5063992;28;20218;-87
2022/01/28 17:28:31;;;;;;;11.80;7.05;;;6.90;99.90;;;;;;5064781;28;20194;-86
2022/01/28 17:30:58;;;;;;;9.27;5.88;;;7.00;99.90;;;;;;5063570;28;20284;-87
2022/01/28 17:33:26;;;;;;;12.82;6.03;;;7.00;99.90;;;;;;5063747;28;20238;-88
2022/01/28 17:35:54;;;;;;;13.10;7.00;;;7.10;99.90;;;;;;5065555;28;20229;-88
2022/01/28 17:38:23;;;;;;;12.60;6.72;;;7.00;99.90;;;;;;5063984;28;20198;-88
2022/01/28 17:40:51;;;;;;;11.40;6.35;;;6.50;99.90;;;;;;5066397;28;20230;-89
2022/01/28 17:43:20;;;;;;;9.82;6.40;;;7.00;99.90;;;;;;5065935;28;20213;-88
2022/01/28 17:45:48;;;;;;;12.57;7.70;;;6.80;99.90;;;;;;5068543;28;20217;-89
2022/01/28 17:48:15;;;;;;;13.65;6.97;;;7.00;99.90;;;;;;5073167;28;20208;-89
2022/01/28 17:50:44;;;;;;;14.23;6.70;;;6.80;99.90;;;;;;5072644;28;20210;-88
2022/01/28 17:53:11;;;;;;;12.65;7.40;;;6.80;99.90;;;;;;5076773;28;20206;-85
2022/01/28 17:55:38;;;;;;;14.88;7.43;;;6.90;99.90;;;;;;5072008;28;20230;-89
2022/01/28 17:58:07;;;;;;;15.80;6.38;;;6.90;99.90;;;;;;5068130;28;20206;-89
2022/01/28 18:00:35;;;;;;;18.25;8.70;;;6.50;99.90;;;;;;5063125;28;20226;-89